RYR310 LIML-LIPQ
Flight info
| Callsign | RYR310 |
|---|---|
| Flight time | N/A |
| Altitude | 20000 |
| Route | RUVAB7AXNESTI6A/35 NESTI DCT NOBMI DCT CHI |
| Aircraft | A20N/M-SDE2E3FGHIRWXY/LB1 |
Departure
| Time | 2026-05-04 17:24 |
|---|---|
| Airport | Milano Linate Airport (LIML) |
Arrival
| Time | N/A |
|---|---|
| Airport | Trieste Airport (LIPQ) |
| Time | Latitude | Longitude | Altitude | Speed | Heading |
|---|---|---|---|---|---|
| 2026-05-04 16:54 | 45.45512 | 9.28057 | 365 ft | 0 kts | 90° |
| 2026-05-04 17:17 | 45.45511 | 9.28101 | 365 ft | 16 kts | 94° |
| 2026-05-04 17:17 | 45.45159 | 9.28044 | 363 ft | 25 kts | 178° |
| 2026-05-04 17:18 | 45.44991 | 9.28064 | 362 ft | 20 kts | 199° |
| 2026-05-04 17:18 | 45.44795 | 9.27946 | 367 ft | 22 kts | 173° |
| 2026-05-04 17:19 | 45.44459 | 9.27981 | 358 ft | 30 kts | 175° |
| 2026-05-04 17:19 | 45.44018 | 9.28031 | 360 ft | 33 kts | 176° |
| 2026-05-04 17:20 | 45.43604 | 9.28072 | 353 ft | 25 kts | 175° |
| 2026-05-04 17:20 | 45.43520 | 9.28080 | 354 ft | 0 kts | 177° |
| 2026-05-04 17:20 | 45.43519 | 9.28080 | 354 ft | 0 kts | 177° |
| 2026-05-04 17:23 | 45.43442 | 9.27921 | 354 ft | 8 kts | 271° |
| 2026-05-04 17:23 | 45.43478 | 9.27816 | 353 ft | 12 kts | 353° |
| 2026-05-04 17:23 | 45.44385 | 9.27718 | 359 ft | 136 kts | 356° |
| 2026-05-04 17:24 | 45.45439 | 9.27632 | 765 ft | 157 kts | 357° |
| 2026-05-04 17:24 | 45.48944 | 9.28054 | 2371 ft | 198 kts | 6° |
| 2026-05-04 17:25 | 45.50413 | 9.28308 | 2743 ft | 227 kts | 2° |
| 2026-05-04 17:25 | 45.53689 | 9.29293 | 4319 ft | 241 kts | 23° |
| 2026-05-04 17:26 | 45.56544 | 9.31353 | 6583 ft | 225 kts | 29° |
| 2026-05-04 17:26 | 45.60809 | 9.34584 | 8808 ft | 238 kts | 30° |
| 2026-05-04 17:27 | 45.63845 | 9.36883 | 9935 ft | 264 kts | 30° |
| 2026-05-04 17:27 | 45.67111 | 9.39763 | 10106 ft | 281 kts | 46° |
| 2026-05-04 17:28 | 45.69595 | 9.44139 | 10352 ft | 294 kts | 57° |
| 2026-05-04 17:29 | 45.73403 | 9.51613 | 12258 ft | 320 kts | 55° |
| 2026-05-04 17:29 | 45.76417 | 9.60251 | 14446 ft | 334 kts | 86° |
| 2026-05-04 17:30 | 45.76917 | 9.70805 | 15936 ft | 371 kts | 88° |
| 2026-05-04 17:31 | 45.77286 | 9.78379 | 16830 ft | 396 kts | 88° |
| 2026-05-04 17:31 | 45.77918 | 9.90771 | 18052 ft | 429 kts | 87° |
| 2026-05-04 17:32 | 45.78356 | 9.99330 | 19193 ft | 436 kts | 87° |
| 2026-05-04 17:33 | 45.79010 | 10.12459 | 20073 ft | 442 kts | 87° |
| 2026-05-04 17:33 | 45.79219 | 10.16865 | 20088 ft | 443 kts | 87° |
| 2026-05-04 17:34 | 45.79827 | 10.30118 | 20409 ft | 445 kts | 87° |
| 2026-05-04 17:34 | 45.79944 | 10.34533 | 21159 ft | 442 kts | 94° |
| 2026-05-04 17:35 | 45.75775 | 10.45709 | 22884 ft | 436 kts | 147° |
| 2026-05-04 17:35 | 45.70374 | 10.49571 | 23884 ft | 441 kts | 150° |
| 2026-05-04 17:35 | 45.67947 | 10.52305 | 24291 ft | 449 kts | 135° |
| 2026-05-04 17:36 | 45.66144 | 10.55974 | 24738 ft | 455 kts | 118° |
| 2026-05-04 17:36 | 45.65133 | 10.60287 | 25166 ft | 462 kts | 101° |
| 2026-05-04 17:36 | 45.65014 | 10.64891 | 25598 ft | 467 kts | 85° |
| 2026-05-04 17:36 | 45.65574 | 10.69488 | 26014 ft | 470 kts | 79° |
| 2026-05-04 17:37 | 45.66191 | 10.74019 | 26407 ft | 473 kts | 81° |
| 2026-05-04 17:37 | 45.66730 | 10.78664 | 26838 ft | 474 kts | 83° |
| 2026-05-04 17:37 | 45.67193 | 10.83346 | 27243 ft | 476 kts | 84° |
| 2026-05-04 17:37 | 45.67608 | 10.88057 | 27605 ft | 479 kts | 84° |
| 2026-05-04 17:38 | 45.67996 | 10.92811 | 27953 ft | 481 kts | 85° |
| 2026-05-04 17:38 | 45.68368 | 10.97577 | 28311 ft | 484 kts | 85° |
| 2026-05-04 17:38 | 45.68731 | 11.02364 | 28660 ft | 486 kts | 85° |
| 2026-05-04 17:38 | 45.69090 | 11.07175 | 29095 ft | 486 kts | 86° |
| 2026-05-04 17:39 | 45.69794 | 11.16785 | 30023 ft | 485 kts | 86° |
| 2026-05-04 17:39 | 45.70135 | 11.21579 | 30232 ft | 482 kts | 89° |
| 2026-05-04 17:39 | 45.69870 | 11.26199 | 30762 ft | 469 kts | 100° |
| 2026-05-04 17:40 | 45.69154 | 11.30656 | 31413 ft | 455 kts | 114° |
| 2026-05-04 17:40 | 45.68192 | 11.33784 | 31957 ft | 447 kts | 115° |